Time;durP1;ratioP1;P1;durP2;ratioP2;P2;SDS_P1;SDS_P2;PMS_P1;PMS_P2;Temp;Humidity;BMP_temperature;BMP_pressure;BME280_temperature;BME280_humidity;BME280_pressure;Samples;Min_cycle;Max_cycle;Signal;HPM_P1;HPM_P2
2022/10/27 00:01:39;;;;;;;30.77;12.82;;;;;;;16.42;73.62;101629.56;5093495;28;20454;-82
2022/10/27 00:04:05;;;;;;;32.05;11.70;;;;;;;16.44;73.47;101627.59;5092887;28;20030;-81
2022/10/27 00:06:30;;;;;;;22.05;12.35;;;;;;;16.43;73.66;101617.72;5091725;28;20582;-84
2022/10/27 00:08:56;;;;;;;23.88;11.43;;;;;;;16.44;73.55;101622.16;5091297;28;20038;-82
2022/10/27 00:11:21;;;;;;;23.13;10.45;;;;;;;16.30;73.31;101604.38;5091926;28;20028;-80
2022/10/27 00:13:47;;;;;;;18.08;10.10;;;;;;;16.49;73.40;101633.44;5091559;28;20035;-81
2022/10/27 00:16:14;;;;;;;23.95;10.23;;;;;;;16.36;72.96;101600.25;5072702;28;20040;-82
2022/10/27 00:18:41;;;;;;;22.05;9.98;;;;;;;16.50;72.76;101620.75;5091601;28;20024;-82
2022/10/27 00:21:10;;;;;;;19.58;10.57;;;;;;;16.58;72.50;101629.06;5090994;28;20062;-82
2022/10/27 00:23:37;;;;;;;20.75;12.05;;;;;;;16.60;72.18;101627.09;5090989;28;20189;-82
2022/10/27 00:26:03;;;;;;;24.95;11.38;;;;;;;16.44;72.39;101605.00;5090859;28;20077;-84
2022/10/27 00:28:28;;;;;;;23.92;11.07;;;;;;;16.51;72.17;101600.75;5091163;28;20158;-83
2022/10/27 00:31:01;;;;;;;27.70;10.57;;;;;;;16.62;72.05;101625.09;5091116;28;20099;-82
2022/10/27 00:33:27;;;;;;;25.88;11.77;;;;;;;16.67;71.74;101625.53;5091443;28;20114;-82
2022/10/27 00:35:52;;;;;;;19.00;12.35;;;;;;;16.69;71.54;101631.69;5091419;28;20103;-82
2022/10/27 00:38:18;;;;;;;49.63;12.82;;;;;;;16.61;71.88;101612.50;5090681;28;20033;-84
2022/10/27 00:40:43;;;;;;;25.20;13.77;;;;;;;16.63;71.84;101624.09;5091105;28;20024;-82
2022/10/27 00:43:29;;;;;;;25.83;10.55;;;;;;;16.59;72.29;101619.94;5090960;28;20024;-81
2022/10/27 00:46:01;;;;;;;123.65;14.75;;;;;;;16.57;72.18;101620.09;5090476;28;20419;-82
2022/10/27 00:48:27;;;;;;;34.45;11.55;;;;;;;16.50;72.31;101609.88;5090668;28;20024;-83
2022/10/27 00:50:52;;;;;;;21.98;11.82;;;;;;;16.55;72.20;101610.34;5090844;28;20483;-81
2022/10/27 00:53:18;;;;;;;49.55;13.23;;;;;;;16.59;72.35;101609.06;5090266;28;20027;-82
2022/10/27 00:55:44;;;;;;;19.35;10.30;;;;;;;16.41;71.87;101583.56;5092767;28;20028;-84
2022/10/27 00:58:17;;;;;;;23.30;10.60;;;;;;;16.55;71.64;101621.19;5093618;28;20035;-81
2022/10/27 01:00:43;;;;;;;26.52;10.07;;;;;;;16.53;71.71;101610.47;5094035;28;20031;-82
2022/10/27 01:03:11;;;;;;;18.23;10.25;;;;;;;16.58;71.60;101615.50;5106999;28;20040;-79
2022/10/27 01:05:39;;;;;;;362.17;27.42;;;;;;;16.67;71.00;101617.38;5116051;28;20055;-77
2022/10/27 01:08:06;;;;;;;237.73;23.48;;;;;;;16.68;70.98;101619.97;5116386;28;20035;-78
2022/10/27 01:10:32;;;;;;;136.98;17.52;;;;;;;16.55;71.03;101586.75;5094695;28;20082;-82
2022/10/27 01:12:59;;;;;;;88.18;12.88;;;;;;;16.54;70.85;101590.50;5090964;28;20024;-83
2022/10/27 01:16:00;;;;;;;57.80;11.75;;;;;;;16.62;71.16;101619.66;5090758;28;20059;-83
2022/10/27 01:18:39;;;;;;;18.38;10.10;;;;;;;16.33;70.96;101573.38;5090330;28;20028;-83
2022/10/27 01:21:38;;;;;;;20.50;12.27;;;;;;;16.66;71.01;101626.53;5090238;28;20048;-83
2022/10/27 01:24:30;;;;;;;25.17;13.48;;;;;;;16.67;70.73;101623.66;5090280;28;20414;-83
2022/10/27 01:27:02;;;;;;;33.15;12.85;;;;;;;16.65;70.70;101622.97;5089859;28;20039;-82
2022/10/27 01:29:45;;;;;;;44.55;15.07;;;;;;;16.70;70.78;101636.09;5091483;28;20028;-82
2022/10/27 01:32:13;;;;;;;31.63;13.68;;;;;;;16.68;70.53;101628.13;5092927;28;20052;-83
2022/10/27 01:34:53;;;;;;;26.15;12.02;;;;;;;16.48;70.32;101601.03;5093315;28;20047;-84
2022/10/27 01:37:29;;;;;;;21.95;11.65;;;;;;;16.60;70.76;101635.25;5094214;28;20077;-82
2022/10/27 01:39:59;;;;;;;20.85;11.27;;;;;;;16.58;70.71;101639.94;5092516;28;20035;-82
2022/10/27 01:42:41;;;;;;;16.10;10.00;;;;;;;16.54;70.39;101633.94;5092975;28;20487;-81
2022/10/27 01:45:11;;;;;;;25.85;11.80;;;;;;;16.52;70.65;101643.19;5090756;28;20102;-81
2022/10/27 01:47:38;;;;;;;24.27;10.18;;;;;;;16.32;70.43;101607.84;5089855;28;20032;-81
2022/10/27 01:50:04;;;;;;;23.13;12.38;;;;;;;16.31;70.51;101613.38;5090036;28;20032;-83
2022/10/27 01:52:45;;;;;;;53.38;16.92;;;;;;;16.20;71.13;101613.50;5089482;28;20031;-82
2022/10/27 01:55:26;;;;;;;30.85;18.30;;;;;;;16.34;71.48;101642.97;5089398;28;20028;-83
2022/10/27 01:58:04;;;;;;;38.65;15.98;;;;;;;16.09;71.69;101617.16;5089416;28;20059;-81
2022/10/27 02:00:40;;;;;;;160.50;20.30;;;;;;;16.04;71.81;101614.00;5089754;28;20060;-82
2022/10/27 02:03:16;;;;;;;568.50;55.33;;;;;;;16.00;71.98;101617.97;5090091;28;20024;-83
2022/10/27 02:06:37;;;;;;;82.63;15.85;;;;;;;16.16;72.00;101656.34;5089540;28;20521;-82
2022/10/27 02:09:32;;;;;;;87.03;16.25;;;;;;;16.13;72.13;101659.31;5027774;28;20033;-82
2022/10/27 02:12:00;;;;;;;38.30;13.73;;;;;;;16.14;71.91;101661.06;4952701;29;20126;-82
2022/10/27 02:14:26;;;;;;;47.40;13.15;;;;;;;15.99;71.97;101629.81;4952504;29;20027;-83
2022/10/27 02:16:52;;;;;;;38.22;13.07;;;;;;;16.06;72.20;101647.28;4973976;28;20055;-80
2022/10/27 02:19:20;;;;;;;30.88;10.95;;;;;;;16.10;72.31;101656.88;4978592;28;20134;-79
2022/10/27 02:21:49;;;;;;;48.63;11.18;;;;;;;16.00;71.85;101634.25;4972918;28;20434;-84
2022/10/27 02:24:15;;;;;;;50.75;12.95;;;;;;;16.16;71.54;101656.34;4952935;29;20191;-81
2022/10/27 02:26:56;;;;;;;64.03;13.50;;;;;;;16.18;71.51;101651.63;4952841;29;20119;-81
2022/10/27 02:29:54;;;;;;;103.32;14.38;;;;;;;16.03;71.53;101628.56;4936049;29;20035;-81
2022/10/27 02:32:22;;;;;;;95.40;14.93;;;;;;;16.21;71.36;101661.34;4933073;29;20593;-84
2022/10/27 02:34:49;;;;;;;77.90;15.80;;;;;;;16.20;71.15;101662.38;4933343;29;20047;-82
2022/10/27 02:37:30;;;;;;;216.48;23.35;;;;;;;16.20;71.19;101667.78;4933298;29;20152;-82
2022/10/27 02:39:56;;;;;;;161.10;17.23;;;;;;;16.23;70.95;101670.22;4933315;29;20051;-83
2022/10/27 02:42:21;;;;;;;119.50;16.33;;;;;;;16.20;71.22;101668.66;4933152;29;20043;-83
2022/10/27 02:44:47;;;;;;;41.15;15.70;;;;;;;16.26;71.07;101678.09;4948492;28;20042;-83
2022/10/27 02:47:12;;;;;;;43.22;20.83;;;;;;;16.24;71.50;101680.06;4972929;28;20039;-81
2022/10/27 02:49:37;;;;;;;28.83;14.73;;;;;;;16.23;71.49;101679.25;5029940;28;20045;-82
2022/10/27 02:52:03;;;;;;;78.35;20.63;;;;;;;16.13;71.62;101670.19;5030234;28;20041;-81
2022/10/27 02:54:30;;;;;;;132.60;18.35;;;;;;;16.12;71.50;101676.59;5029690;28;20453;-82
2022/10/27 02:56:56;;;;;;;73.30;17.33;;;;;;;16.16;71.35;101679.91;5013297;28;20052;-83
2022/10/27 02:59:21;;;;;;;120.28;18.33;;;;;;;16.18;71.42;101683.34;5030267;28;20033;-83
2022/10/27 03:01:46;;;;;;;22.65;10.82;;;;;;;16.18;71.32;101681.47;5030181;28;20030;-84
2022/10/27 03:04:12;;;;;;;32.58;11.52;;;;;;;16.19;70.76;101683.22;5030006;28;20033;-84
2022/10/27 03:06:37;;;;;;;22.23;9.15;;;;;;;16.22;70.28;101682.06;5030081;28;20036;-82
2022/10/27 03:09:03;;;;;;;50.55;11.32;;;;;;;16.09;70.09;101663.28;5059232;28;20515;-82
2022/10/27 03:11:28;;;;;;;31.42;10.88;;;;;;;16.26;69.58;101684.41;5092681;28;20030;-81
2022/10/27 03:13:53;;;;;;;20.83;11.82;;;;;;;16.13;69.67;101662.03;5093131;28;20020;-81
2022/10/27 03:16:19;;;;;;;36.72;13.05;;;;;;;16.29;69.90;101689.56;5073889;28;20458;-81
2022/10/27 03:18:44;;;;;;;217.18;24.95;;;;;;;16.30;69.65;101691.25;5092985;28;20523;-85
2022/10/27 03:21:10;;;;;;;29.17;13.95;;;;;;;16.33;69.74;101685.56;5092419;28;20031;-82
2022/10/27 03:23:35;;;;;;;128.40;20.15;;;;;;;16.17;70.04;101659.91;5095239;28;20028;-81
2022/10/27 03:26:00;;;;;;;92.05;19.85;;;;;;;16.36;69.97;101694.44;5095421;28;20031;-82
2022/10/27 03:28:29;;;;;;;88.50;15.38;;;;;;;16.41;69.93;101692.16;5098937;28;20035;-82
2022/10/27 03:30:54;;;;;;;137.55;22.75;;;;;;;16.43;69.49;101695.59;5110093;28;20048;-80
2022/10/27 03:33:20;;;;;;;44.33;19.25;;;;;;;16.42;69.74;101699.34;5115257;28;20016;-81
2022/10/27 03:35:45;;;;;;;46.38;21.38;;;;;;;16.37;70.21;101705.16;5105152;28;20088;-79
2022/10/27 03:38:11;;;;;;;42.60;23.55;;;;;;;16.37;70.48;101704.28;5099489;28;20047;-83
2022/10/27 03:40:37;;;;;;;44.90;27.65;;;;;;;16.32;70.98;101693.84;5095796;28;20028;-81
2022/10/27 03:43:03;;;;;;;62.90;33.58;;;;;;;16.33;70.89;101700.97;5092177;28;20046;-79
2022/10/27 03:45:28;;;;;;;419.52;57.08;;;;;;;16.33;71.19;101695.56;5092807;28;20031;-80
2022/10/27 03:48:05;;;;;;;89.47;40.50;;;;;;;16.29;71.35;101695.00;5093099;28;20048;-80
2022/10/27 03:50:31;;;;;;;182.10;41.25;;;;;;;16.32;71.17;101693.84;5091223;28;20027;-80
2022/10/27 03:52:57;;;;;;;103.20;42.97;;;;;;;16.37;71.39;101701.56;5091884;28;20028;-80
2022/10/27 03:55:23;;;;;;;212.18;40.65;;;;;;;16.29;71.08;101700.41;5091636;28;20036;-81
2022/10/27 03:57:49;;;;;;;143.60;42.00;;;;;;;16.34;71.42;101709.00;5091554;28;20053;-81
2022/10/27 04:00:15;;;;;;;291.77;58.28;;;;;;;16.37;71.39;101717.88;5091718;28;20487;-80
2022/10/27 04:02:40;;;;;;;129.88;47.92;;;;;;;16.32;71.61;101705.56;5091020;28;20120;-78
2022/10/27 04:05:06;;;;;;;88.20;53.10;;;;;;;16.29;71.76;101711.28;5091167;28;20028;-81
2022/10/27 04:07:31;;;;;;;281.23;60.25;;;;;;;16.24;71.87;101713.53;5091569;28;20431;-79
2022/10/27 04:09:57;;;;;;;126.88;50.75;;;;;;;16.22;72.07;101730.94;5090754;28;20173;-78
2022/10/27 04:12:22;;;;;;;140.70;55.85;;;;;;;16.19;71.96;101737.50;5091368;28;20024;-79
2022/10/27 04:14:49;;;;;;;116.47;51.25;;;;;;;16.12;72.48;101743.59;5090956;28;20036;-80
2022/10/27 04:17:15;;;;;;;132.82;53.90;;;;;;;15.94;73.38;101743.34;5071748;28;20059;-79
2022/10/27 04:19:41;;;;;;;566.83;94.85;;;;;;;15.88;73.38;101727.59;5091078;28;20108;-79
2022/10/27 04:22:06;;;;;;;104.45;53.33;;;;;;;15.95;73.45;101738.78;5090846;28;20024;-78
2022/10/27 04:24:32;;;;;;;96.72;52.22;;;;;;;16.02;73.01;101740.84;5091013;28;20032;-78
2022/10/27 04:26:57;;;;;;;151.02;52.60;;;;;;;16.10;72.97;101738.31;5090877;28;20058;-78
2022/10/27 04:29:22;;;;;;;322.95;66.60;;;;;;;16.16;72.72;101745.91;5091034;28;20459;-79
2022/10/27 04:31:48;;;;;;;149.45;53.17;;;;;;;16.06;72.80;101725.13;5091168;28;20059;-80
2022/10/27 04:34:13;;;;;;;155.43;52.95;;;;;;;16.22;72.65;101749.94;5092086;28;20020;-80
2022/10/27 04:36:39;;;;;;;113.78;49.05;;;;;;;16.25;72.35;101750.53;5092598;28;20441;-80
2022/10/27 04:39:04;;;;;;;264.48;57.63;;;;;;;16.31;72.20;101752.72;5091721;28;20487;-79
2022/10/27 04:41:30;;;;;;;254.80;55.92;;;;;;;16.32;71.83;101754.44;5101656;28;20151;-83
2022/10/27 04:43:56;;;;;;;333.23;60.55;;;;;;;16.15;71.58;101727.03;5115834;28;20020;-78
2022/10/27 04:46:21;;;;;;;409.02;64.10;;;;;;;16.19;71.62;101736.63;5114135;28;20024;-81
2022/10/27 04:48:47;;;;;;;255.27;53.00;;;;;;;16.39;71.33;101770.22;5097829;28;20112;-78
2022/10/27 04:51:13;;;;;;;430.85;64.93;;;;;;;16.38;71.33;101763.03;5091183;28;20111;-78
2022/10/27 04:53:38;;;;;;;361.60;61.35;;;;;;;16.39;71.41;101776.47;5090831;28;20098;-79
2022/10/27 04:56:04;;;;;;;311.95;51.38;;;;;;;16.37;71.43;101761.31;5087889;28;20016;-79
2022/10/27 04:58:29;;;;;;;242.75;48.80;;;;;;;16.46;70.92;101779.50;5089925;28;20032;-80
2022/10/27 05:00:55;;;;;;;141.48;40.50;;;;;;;16.46;71.05;101771.38;5090038;28;20064;-79
2022/10/27 05:03:20;;;;;;;82.68;37.60;;;;;;;16.33;70.66;101758.00;5091097;28;20054;-80
2022/10/27 05:05:45;;;;;;;91.82;36.25;;;;;;;16.48;70.81;101783.81;5089621;28;20027;-78
2022/10/27 05:08:12;;;;;;;342.10;54.22;;;;;;;16.51;70.35;101775.38;5087933;28;20123;-77
2022/10/27 05:10:37;;;;;;;385.98;53.25;;;;;;;16.46;70.44;101774.94;5087519;28;20098;-77
2022/10/27 05:13:03;;;;;;;117.72;33.72;;;;;;;16.61;70.17;101792.63;5088902;28;20042;-78
2022/10/27 05:15:29;;;;;;;314.35;45.92;;;;;;;16.43;69.94;101756.22;5088832;28;20034;-78
2022/10/27 05:17:54;;;;;;;301.65;44.78;;;;;;;16.71;69.86;101801.72;5088668;28;20093;-78
2022/10/27 05:20:21;;;;;;;554.15;67.88;;;;;;;16.54;69.69;101769.75;5088884;28;20398;-78
2022/10/27 05:22:47;;;;;;;548.42;62.63;;;;;;;16.77;69.68;101805.72;5088814;28;20020;-77
2022/10/27 05:25:12;;;;;;;297.27;42.95;;;;;;;16.69;69.81;101781.09;5088744;28;20031;-78
2022/10/27 05:27:38;;;;;;;429.70;57.97;;;;;;;16.86;69.50;101808.50;5088210;28;20103;-79
2022/10/27 05:30:05;;;;;;;554.00;66.95;;;;;;;16.88;69.83;101808.34;5088525;28;20031;-76
2022/10/27 05:32:30;;;;;;;177.60;36.70;;;;;;;16.88;69.44;101800.19;5089733;28;20551;-84
2022/10/27 05:34:56;;;;;;;325.60;48.72;;;;;;;17.01;68.93;101810.84;5091070;28;20031;-84
2022/10/27 05:37:22;;;;;;;163.30;33.70;;;;;;;16.93;68.77;101787.06;5089907;28;20036;-90
2022/10/27 05:39:47;;;;;;;232.90;35.25;;;;;;;17.24;68.19;101826.81;5090384;28;20419;-81
2022/10/27 05:42:13;;;;;;;274.20;38.60;;;;;;;17.27;68.05;101810.22;5089486;28;20038;-79
2022/10/27 05:44:38;;;;;;;240.80;37.33;;;;;;;17.53;67.65;101834.16;5088383;28;20024;-80
2022/10/27 05:47:04;;;;;;;478.92;57.78;;;;;;;17.64;67.09;101831.38;5089271;28;20032;-79
2022/10/27 05:49:29;;;;;;;322.63;46.95;;;;;;;17.78;66.56;101834.53;5090513;28;20032;-80
2022/10/27 05:51:54;;;;;;;117.35;39.35;;;;;;;17.88;65.93;101839.97;5089345;28;20085;-79
2022/10/27 05:54:20;;;;;;;210.15;37.42;;;;;;;17.87;66.06;101835.53;5111915;28;20024;-78
2022/10/27 05:56:48;;;;;;;162.90;33.80;;;;;;;17.94;65.48;101828.53;5114473;28;20036;-78
2022/10/27 05:59:13;;;;;;;125.68;33.22;;;;;;;18.11;65.07;101846.84;5105206;28;20032;-79
2022/10/27 06:01:38;;;;;;;90.45;31.58;;;;;;;18.16;64.89;101858.19;5088627;28;20487;-79
2022/10/27 06:04:04;;;;;;;147.38;39.47;;;;;;;18.21;64.72;101847.72;5088342;28;20030;-80
2022/10/27 06:06:29;;;;;;;128.30;37.10;;;;;;;18.30;64.63;101857.75;5088381;28;20039;-78
2022/10/27 06:08:55;;;;;;;225.75;40.63;;;;;;;18.32;64.42;101861.19;5087957;28;20034;-81
2022/10/27 06:11:20;;;;;;;113.35;36.40;;;;;;;18.38;63.97;101859.72;5088507;28;20028;-80
2022/10/27 06:13:50;;;;;;;121.22;35.63;;;;;;;18.25;63.90;101843.72;5088105;28;20024;-79
2022/10/27 06:16:16;;;;;;;77.05;33.30;;;;;;;18.39;63.65;101856.88;5088285;28;20064;-80
2022/10/27 06:18:41;;;;;;;115.90;33.72;;;;;;;18.37;63.46;101861.63;5088304;28;20051;-79
2022/10/27 06:21:07;;;;;;;63.47;33.08;;;;;;;18.39;63.19;101872.34;5088731;28;20455;-79
2022/10/27 06:23:32;;;;;;;299.17;46.55;;;;;;;18.43;63.26;101869.22;5086474;28;20756;-85
2022/10/27 06:25:58;;;;;;;82.65;33.10;;;;;;;18.18;63.24;101845.28;5088175;28;20058;-83
2022/10/27 06:28:23;;;;;;;97.80;33.10;;;;;;;18.37;63.43;101874.38;5088103;28;20509;-80
2022/10/27 06:30:48;;;;;;;75.85;30.13;;;;;;;18.39;63.79;101877.81;5089623;28;20471;-82
2022/10/27 06:33:14;;;;;;;76.70;28.35;;;;;;;18.33;63.73;101881.97;5088055;28;20032;-81
2022/10/27 06:35:39;;;;;;;70.03;30.63;;;;;;;18.43;63.67;101887.41;5088106;28;20518;-81
2022/10/27 06:38:05;;;;;;;64.07;30.60;;;;;;;18.29;63.64;101853.28;5087912;28;20020;-79
2022/10/27 06:40:30;;;;;;;71.03;32.15;;;;;;;18.40;63.56;101877.69;5088018;28;20032;-79
2022/10/27 06:42:56;;;;;;;69.60;33.70;;;;;;;18.43;63.45;101880.09;5087977;28;20487;-83
2022/10/27 06:45:21;;;;;;;79.15;33.15;;;;;;;18.55;63.50;101879.97;5088171;28;20032;-83
2022/10/27 06:47:55;;;;;;;62.35;32.38;;;;;;;18.43;63.03;101852.88;5087564;28;20039;-87
2022/10/27 06:50:21;;;;;;;58.55;32.45;;;;;;;18.54;62.82;101883.69;5088457;28;20136;-81
2022/10/27 06:52:46;;;;;;;76.80;33.35;;;;;;;18.48;62.90;101874.22;5088549;28;20072;-80
2022/10/27 06:55:12;;;;;;;95.68;34.03;;;;;;;18.56;63.02;101890.72;5088646;28;20085;-81
2022/10/27 06:57:41;;;;;;;117.93;36.05;;;;;;;18.48;62.90;101876.94;5095028;28;20051;-85
2022/10/27 07:00:09;;;;;;;80.03;35.80;;;;;;;18.49;62.99;101884.16;5093536;28;20419;-78
2022/10/27 07:02:34;;;;;;;212.45;43.10;;;;;;;18.52;62.96;101888.44;5087856;28;20395;-77
2022/10/27 07:05:00;;;;;;;121.20;53.08;;;;;;;18.51;62.93;101881.25;5097153;28;20039;-77
2022/10/27 07:07:26;;;;;;;91.32;38.38;;;;;;;18.57;62.77;101886.13;5103846;28;20020;-77
2022/10/27 07:09:51;;;;;;;83.53;36.58;;;;;;;18.59;62.77;101889.59;5103452;28;20053;-76
2022/10/27 07:12:16;;;;;;;66.05;36.08;;;;;;;18.65;62.70;101897.19;5090857;28;20024;-76
2022/10/27 07:14:42;;;;;;;71.05;35.15;;;;;;;18.61;62.51;101879.38;5091242;28;20115;-77
2022/10/27 07:17:07;;;;;;;75.18;36.47;;;;;;;18.54;62.30;101864.63;5092022;28;20028;-76
2022/10/27 07:19:32;;;;;;;86.55;38.90;;;;;;;18.65;61.94;101868.06;5091435;28;20386;-77
2022/10/27 07:21:58;;;;;;;92.20;41.17;;;;;;;18.91;61.66;101895.53;5090841;28;20032;-76
2022/10/27 07:24:23;;;;;;;75.05;41.08;;;;;;;18.99;61.36;101904.69;5089565;28;20105;-77
2022/10/27 07:26:49;;;;;;;83.13;41.33;;;;;;;19.03;61.06;101895.19;5091590;28;20032;-78
2022/10/27 07:29:14;;;;;;;133.57;43.15;;;;;;;19.12;60.95;101893.44;5091163;28;20089;-76
2022/10/27 07:31:43;;;;;;;74.28;38.42;;;;;;;19.08;60.51;101886.56;5090921;28;20048;-76
2022/10/27 07:34:09;;;;;;;114.38;41.67;;;;;;;19.22;59.88;101907.03;5090810;28;20054;-75
2022/10/27 07:36:34;;;;;;;61.55;38.58;;;;;;;19.13;59.42;101911.53;5090839;28;20467;-77
2022/10/27 07:38:59;;;;;;;60.45;37.25;;;;;;;19.03;59.59;101895.19;5090911;28;20490;-80
2022/10/27 07:41:25;;;;;;;75.65;39.67;;;;;;;19.18;59.56;101920.13;5090599;28;20020;-82
2022/10/27 07:43:50;;;;;;;81.80;43.10;;;;;;;18.92;59.51;101872.72;5071252;28;20044;-78
2022/10/27 07:46:16;;;;;;;99.00;50.22;;;;;;;19.16;59.65;101919.41;5091357;28;20137;-83
2022/10/27 07:48:41;;;;;;;99.47;43.90;;;;;;;19.21;59.77;101927.13;5090891;28;20021;-80
2022/10/27 07:51:06;;;;;;;378.27;60.03;;;;;;;19.24;59.73;101924.13;5090583;28;20024;-81
2022/10/27 07:53:32;;;;;;;80.28;43.95;;;;;;;19.01;59.59;101890.91;5090738;28;20483;-81
2022/10/27 07:55:57;;;;;;;80.75;46.53;;;;;;;19.27;59.89;101916.50;5090159;28;20028;-81
2022/10/27 07:58:23;;;;;;;118.38;51.88;;;;;;;19.36;60.07;101915.59;5070745;28;20105;-80
2022/10/27 08:00:48;;;;;;;95.65;51.22;;;;;;;19.52;59.07;101906.78;5090338;28;20023;-82
2022/10/27 08:03:17;;;;;;;89.68;48.17;;;;;;;19.68;59.10;101906.13;5090981;28;20024;-82
2022/10/27 08:05:43;;;;;;;84.50;44.40;;;;;;;19.83;58.35;101893.69;5090635;28;20507;-80
2022/10/27 08:08:09;;;;;;;96.40;42.33;;;;;;;20.13;57.33;101901.50;5092659;28;20028;-81
2022/10/27 08:10:38;;;;;;;97.30;42.47;;;;;;;20.42;56.90;101912.25;5092461;28;20039;-81
2022/10/27 08:13:04;;;;;;;178.63;46.13;;;;;;;20.69;55.96;101903.06;5092323;28;20107;-80
2022/10/27 08:15:31;;;;;;;77.03;30.42;;;;;;;20.82;55.57;101892.56;5100025;28;20046;-78
2022/10/27 08:18:00;;;;;;;59.10;25.95;;;;;;;21.20;54.19;101908.56;5115558;28;20097;-78
2022/10/27 08:20:30;;;;;;;159.52;28.60;;;;;;;21.39;52.72;101907.44;5115347;28;20121;-79
2022/10/27 08:23:01;;;;;;;66.82;20.88;;;;;;;21.57;52.26;101914.56;5094900;28;20063;-80
2022/10/27 08:25:27;;;;;;;69.68;24.40;;;;;;;21.62;52.39;101920.38;5091718;28;20016;-81
2022/10/27 08:27:53;;;;;;;135.48;26.10;;;;;;;21.71;52.04;101913.91;5090224;28;20035;-80
2022/10/27 08:30:19;;;;;;;74.05;18.92;;;;;;;21.65;52.25;101903.63;5091443;28;20035;-81
2022/10/27 08:32:46;;;;;;;74.40;20.27;;;;;;;21.66;52.44;101921.78;5091477;28;20138;-80
2022/10/27 08:35:12;;;;;;;117.35;21.88;;;;;;;21.46;53.08;101920.34;5090035;28;20034;-82
2022/10/27 08:37:37;;;;;;;66.53;18.77;;;;;;;21.48;53.24;101912.81;5089397;28;20432;-81
2022/10/27 08:40:03;;;;;;;397.23;41.20;;;;;;;21.59;53.03;101915.25;5089140;28;20024;-80
2022/10/27 08:42:41;;;;;;;663.47;74.35;;;;;;;21.41;52.91;101922.69;5070277;28;20040;-82
2022/10/27 08:45:25;;;;;;;274.10;35.85;;;;;;;21.03;53.57;101923.13;5089367;28;20076;-81
2022/10/27 08:47:54;;;;;;;244.43;33.13;;;;;;;21.14;54.13;101921.00;5088609;28;20467;-79
2022/10/27 08:50:23;;;;;;;130.20;20.42;;;;;;;21.11;53.94;101893.97;5054606;28;20635;-81
2022/10/27 08:52:59;;;;;;;439.77;56.38;;;;;;;21.20;54.08;101914.03;5090046;28;20034;-79
2022/10/27 08:55:29;;;;;;;56.55;15.55;;;;;;;21.13;54.33;101913.81;5090166;28;20028;-79
2022/10/27 08:58:02;;;;;;;183.60;29.20;;;;;;;20.96;54.59;101917.44;5090346;28;20034;-79
2022/10/27 09:00:33;;;;;;;384.65;35.42;;;;;;;21.01;55.13;101911.47;5089642;28;20491;-79
2022/10/27 09:03:17;;;;;;;29.15;11.70;;;;;;;21.19;54.65;101920.53;5089783;28;20111;-76
2022/10/27 09:06:00;;;;;;;39.67;12.10;;;;;;;21.16;54.40;101909.88;5089933;28;20031;-80
2022/10/27 09:08:35;;;;;;;48.53;10.85;;;;;;;21.12;54.41;101916.72;5088503;28;20426;-78
2022/10/27 09:11:03;;;;;;;47.80;10.75;;;;;;;21.10;54.70;101891.38;5090088;28;20024;-78
2022/10/27 09:13:47;;;;;;;23.15;10.38;;;;;;;21.19;54.86;101917.81;5089777;28;20107;-78
2022/10/27 09:16:21;;;;;;;34.47;10.57;;;;;;;21.23;55.21;101905.50;5090357;28;20055;-80
2022/10/27 09:18:54;;;;;;;479.92;37.50;;;;;;;21.25;55.71;101911.69;5091054;28;20036;-81
2022/10/27 09:21:21;;;;;;;64.38;11.68;;;;;;;21.22;55.59;101895.59;5090879;28;20030;-79
2022/10/27 09:23:52;;;;;;;669.75;60.33;;;;;;;21.17;55.76;101917.09;5090086;28;20024;-81
2022/10/27 09:26:22;;;;;;;38.80;10.52;;;;;;;21.15;55.93;101916.41;5090860;28;20024;-77
2022/10/27 09:28:53;;;;;;;43.30;11.25;;;;;;;21.21;56.21;101891.13;5111315;28;20020;-78
2022/10/27 09:31:44;;;;;;;46.05;10.70;;;;;;;21.46;56.33;101920.34;5112085;28;20064;-78
2022/10/27 09:34:18;;;;;;;19.95;9.20;;;;;;;21.48;56.67;101915.53;5098498;28;20028;-78
2022/10/27 09:36:43;;;;;;;18.13;9.07;;;;;;;21.31;57.19;101883.66;5089926;28;20111;-81
2022/10/27 09:39:09;;;;;;;38.60;10.27;;;;;;;21.27;57.07;101882.25;5089913;28;20169;-79
2022/10/27 09:41:35;;;;;;;70.15;14.43;;;;;;;21.45;57.02;101906.78;5089700;28;20824;-79
2022/10/27 09:44:02;;;;;;;50.20;18.83;;;;;;;21.55;57.02;101908.41;5089515;28;20526;-80
2022/10/27 09:46:29;;;;;;;36.78;14.82;;;;;;;21.74;56.89;101907.28;5089500;28;20395;-78
2022/10/27 09:49:00;;;;;;;119.13;35.88;;;;;;;21.85;56.93;101908.81;5089443;28;20021;-79
2022/10/27 09:51:50;;;;;;;161.48;20.17;;;;;;;21.91;56.79;101908.19;5070171;28;20073;-78
2022/10/27 09:54:38;;;;;;;21.17;8.32;;;;;;;22.19;55.62;101905.00;5089922;28;20085;-79
2022/10/27 09:57:11;;;;;;;136.57;14.88;;;;;;;22.19;56.03;101898.66;5089592;28;20122;-79
2022/10/27 09:59:37;;;;;;;33.05;8.95;;;;;;;22.20;55.55;101906.69;5089575;28;20028;-81
2022/10/27 10:02:34;;;;;;;37.05;9.55;;;;;;;22.29;54.96;101891.16;5090205;28;20039;-80
2022/10/27 10:05:00;;;;;;;493.02;39.25;;;;;;;22.38;54.98;101897.47;5088929;28;20077;-79
2022/10/27 10:07:31;;;;;;;309.73;24.13;;;;;;;22.49;54.74;101898.00;5089106;28;20020;-80
2022/10/27 10:10:21;;;;;;;105.70;11.70;;;;;;;22.47;55.18;101905.53;5089428;28;20024;-78
2022/10/27 10:13:12;;;;;;;124.68;13.18;;;;;;;22.37;57.18;101896.63;5089216;28;20069;-79
2022/10/27 10:15:47;;;;;;;160.02;21.15;;;;;;;22.30;57.83;101906.53;5088988;28;20021;-78
2022/10/27 10:18:28;;;;;;;1084.10;159.57;;;;;;;22.23;58.72;101898.13;5088726;28;20119;-78
2022/10/27 10:20:56;;;;;;;273.58;22.92;;;;;;;22.20;58.93;101900.34;5036291;28;20040;-80
2022/10/27 10:23:25;;;;;;;757.50;96.90;;;;;;;22.20;58.75;101875.69;5086718;28;20024;-77
2022/10/27 10:25:54;;;;;;;102.55;15.10;;;;;;;22.27;58.58;101884.97;5087411;28;20027;-80
2022/10/27 10:28:36;;;;;;;33.08;9.80;;;;;;;22.24;59.50;101893.53;5086031;28;20438;-79
2022/10/27 10:31:04;;;;;;;219.93;19.67;;;;;;;22.15;58.97;101889.06;5087842;28;20044;-81
2022/10/27 10:33:42;;;;;;;53.53;8.90;;;;;;;22.06;59.41;101890.06;5088680;28;20025;-80
2022/10/27 10:36:26;;;;;;;140.10;21.52;;;;;;;22.23;58.99;101897.31;5088398;28;20056;-80
2022/10/27 10:38:59;;;;;;;26.05;7.25;;;;;;;22.12;58.27;101851.88;5093572;28;20036;-80
2022/10/27 10:41:26;;;;;;;638.80;53.97;;;;;;;22.20;58.71;101881.16;5117453;28;20080;-76
2022/10/27 10:44:10;;;;;;;298.52;33.10;;;;;;;22.12;59.63;101884.78;5117736;28;20028;-77
2022/10/27 10:46:39;;;;;;;1592.70;136.80;;;;;;;22.08;59.36;101882.53;5099284;28;20085;-80
2022/10/27 10:49:16;;;;;;;73.82;11.57;;;;;;;22.18;59.44;101892.31;5091676;28;20043;-81
2022/10/27 10:51:41;;;;;;;225.07;22.77;;;;;;;22.26;59.13;101880.53;5059005;28;20082;-78
2022/10/27 10:54:15;;;;;;;110.68;16.80;;;;;;;22.19;58.43;101854.81;5091630;28;20543;-83
2022/10/27 10:56:41;;;;;;;38.15;8.50;;;;;;;22.38;58.68;101887.38;5055299;28;20047;-79
2022/10/27 10:59:12;;;;;;;103.10;11.45;;;;;;;22.27;58.95;101886.84;5091710;28;20073;-77
2022/10/27 11:01:53;;;;;;;49.92;9.27;;;;;;;22.20;59.39;101873.81;5091536;28;20024;-79
2022/10/27 11:04:24;;;;;;;32.20;8.50;;;;;;;22.12;59.69;101878.44;5091067;28;20053;-76
2022/10/27 11:07:15;;;;;;;444.23;36.85;;;;;;;22.17;60.03;101881.50;5090703;28;20127;-78
2022/10/27 11:10:01;;;;;;;402.17;39.28;;;;;;;21.89;61.45;101880.13;4988883;28;20616;-77
2022/10/27 11:12:50;;;;;;;86.05;12.27;;;;;;;21.88;61.61;101872.88;4988733;28;20669;-77
2022/10/27 11:15:34;;;;;;;388.17;32.95;;;;;;;21.80;62.53;101878.34;4873916;29;20505;-78
2022/10/27 11:18:18;;;;;;;71.45;11.60;;;;;;;21.93;62.73;101867.78;4874103;29;20049;-77